createdAt,value
2018-06-28T00:00:10.110Z,18.00
2018-06-28T00:02:38.236Z,17.91
2018-06-28T00:05:06.323Z,17.82
2018-06-28T00:07:34.347Z,17.72
2018-06-28T00:10:02.263Z,17.58
2018-06-28T00:12:30.415Z,17.47
2018-06-28T00:14:58.488Z,17.44
2018-06-28T00:17:26.484Z,17.45
2018-06-28T00:19:54.516Z,17.45
2018-06-28T00:22:22.524Z,17.44
2018-06-28T00:24:50.658Z,17.37
2018-06-28T00:27:18.722Z,17.33
2018-06-28T00:29:46.832Z,17.27
2018-06-28T00:32:14.817Z,17.24
2018-06-28T00:34:42.916Z,17.22
2018-06-28T00:37:11.067Z,17.17
2018-06-28T00:39:39.100Z,17.11
2018-06-28T00:42:07.208Z,17.07
2018-06-28T00:44:35.289Z,17.02
2018-06-28T00:47:03.349Z,17.00
2018-06-28T00:49:31.375Z,16.99
2018-06-28T00:51:59.546Z,16.95
2018-06-28T00:54:27.543Z,16.92
2018-06-28T00:56:55.688Z,16.90
2018-06-28T00:59:23.827Z,16.88
2018-06-28T01:01:52.119Z,16.83
2018-06-28T01:04:20.202Z,16.78
2018-06-28T01:06:48.276Z,16.67
2018-06-28T01:09:16.241Z,16.60
2018-06-28T01:11:44.305Z,16.58
2018-06-28T01:14:13.315Z,16.52
2018-06-28T01:16:41.355Z,16.45
2018-06-28T01:19:09.509Z,16.45
2018-06-28T01:21:37.627Z,16.41
2018-06-28T01:24:05.729Z,16.36
2018-06-28T01:26:33.981Z,16.40
2018-06-28T01:29:02.058Z,16.35
2018-06-28T01:31:30.232Z,16.34
2018-06-28T01:33:58.208Z,16.31
2018-06-28T01:36:26.178Z,16.32
2018-06-28T01:38:54.379Z,16.35
2018-06-28T01:41:22.444Z,16.30
2018-06-28T01:43:50.520Z,16.31
2018-06-28T01:46:18.962Z,16.32
2018-06-28T01:48:47.196Z,16.32
2018-06-28T01:51:15.274Z,16.21
2018-06-28T01:53:43.340Z,16.19
2018-06-28T01:56:11.389Z,16.17
2018-06-28T01:58:39.534Z,16.16
2018-06-28T02:01:07.792Z,16.22
2018-06-28T02:03:36.136Z,16.18
2018-06-28T02:06:04.142Z,16.17
2018-06-28T02:08:32.118Z,16.12
2018-06-28T02:11:00.157Z,16.10
2018-06-28T02:13:28.149Z,16.15
2018-06-28T02:15:57.304Z,16.14
2018-06-28T02:18:25.376Z,16.09
2018-06-28T02:20:53.325Z,16.07
2018-06-28T02:23:22.225Z,16.11
2018-06-28T02:25:50.199Z,16.05
2018-06-28T02:28:18.137Z,16.04
2018-06-28T02:30:46.139Z,16.11
2018-06-28T02:33:14.101Z,16.12
2018-06-28T02:35:42.523Z,16.07
2018-06-28T02:38:10.652Z,16.02
2018-06-28T02:40:38.581Z,15.96
2018-06-28T02:43:06.550Z,15.92
2018-06-28T02:45:34.459Z,15.92
2018-06-28T02:48:02.588Z,15.87
2018-06-28T02:50:30.544Z,15.88
2018-06-28T02:52:58.580Z,15.90
2018-06-28T02:55:26.520Z,15.91
2018-06-28T02:57:54.556Z,15.93
2018-06-28T03:00:22.554Z,15.99
2018-06-28T03:02:50.525Z,16.05
2018-06-28T03:05:19.060Z,16.11
2018-06-28T03:07:47.777Z,16.20
2018-06-28T03:10:15.860Z,16.11
2018-06-28T03:12:43.821Z,16.14
2018-06-28T03:15:11.820Z,16.07
2018-06-28T03:17:40.287Z,16.10
2018-06-28T03:20:08.245Z,16.06
2018-06-28T03:22:36.240Z,16.08
2018-06-28T03:25:04.218Z,15.98
2018-06-28T03:27:32.188Z,15.90
2018-06-28T03:30:00.238Z,15.81
2018-06-28T03:32:28.212Z,15.78
2018-06-28T03:34:56.199Z,15.75
2018-06-28T03:37:24.200Z,15.73
2018-06-28T03:39:52.320Z,15.76
2018-06-28T03:42:25.285Z,15.83
2018-06-28T03:44:53.279Z,15.72
2018-06-28T03:47:21.291Z,15.76
2018-06-28T03:49:49.241Z,15.86
2018-06-28T03:52:17.231Z,15.91
2018-06-28T03:54:45.117Z,16.00
2018-06-28T03:57:13.429Z,16.19
2018-06-28T03:59:41.423Z,16.34
2018-06-28T04:02:09.438Z,16.56
2018-06-28T04:04:37.449Z,16.81
2018-06-28T04:07:05.474Z,16.97
2018-06-28T04:09:33.576Z,17.15
2018-06-28T04:12:01.562Z,17.27
2018-06-28T04:14:29.539Z,17.40
2018-06-28T04:16:57.485Z,17.34
2018-06-28T04:19:25.491Z,17.41
2018-06-28T04:21:53.485Z,17.34
2018-06-28T04:24:21.418Z,17.46
2018-06-28T04:26:50.422Z,17.45
2018-06-28T04:29:18.468Z,17.42
2018-06-28T04:31:46.507Z,17.33
2018-06-28T04:34:14.454Z,17.35
2018-06-28T04:36:42.506Z,17.41
2018-06-28T04:39:12.612Z,17.32
2018-06-28T04:41:40.616Z,17.33
2018-06-28T04:44:08.700Z,17.42
2018-06-28T04:46:36.658Z,17.45
2018-06-28T04:49:04.627Z,17.46
2018-06-28T04:51:32.578Z,17.45
2018-06-28T04:54:00.546Z,17.59
2018-06-28T04:56:28.459Z,17.75
2018-06-28T04:58:56.424Z,17.82
2018-06-28T05:01:24.503Z,17.85
2018-06-28T05:03:52.621Z,18.07
2018-06-28T05:06:21.017Z,18.18
2018-06-28T05:08:49.167Z,18.44
2018-06-28T05:11:17.054Z,18.53
2018-06-28T05:13:45.028Z,18.54
2018-06-28T05:16:13.066Z,18.47
2018-06-28T05:18:41.166Z,18.42
2018-06-28T05:21:09.112Z,18.44
2018-06-28T05:23:37.306Z,18.55
2018-06-28T05:26:05.488Z,18.70
2018-06-28T05:28:33.481Z,18.81
2018-06-28T05:31:01.445Z,18.91
2018-06-28T05:33:29.445Z,19.08
2018-06-28T05:35:58.021Z,19.22
2018-06-28T05:38:26.003Z,19.29
2018-06-28T05:40:54.019Z,19.28
2018-06-28T05:43:22.038Z,19.30
2018-06-28T05:45:50.114Z,19.32
2018-06-28T05:48:18.138Z,19.32
2018-06-28T05:50:46.164Z,19.52
2018-06-28T05:53:14.184Z,19.72
2018-06-28T05:55:42.363Z,19.87
2018-06-28T05:58:10.542Z,20.12
2018-06-28T06:00:38.612Z,20.37
2018-06-28T06:03:06.699Z,20.60
2018-06-28T06:05:34.679Z,20.73
2018-06-28T06:08:03.275Z,20.87
2018-06-28T06:10:31.294Z,20.88
2018-06-28T06:13:00.682Z,20.84
2018-06-28T06:15:28.675Z,20.77
2018-06-28T06:17:56.780Z,20.77
2018-06-28T06:20:25.074Z,20.57
2018-06-28T06:22:53.514Z,20.49
2018-06-28T06:25:21.591Z,20.41
2018-06-28T06:27:49.583Z,20.43
2018-06-28T06:30:17.524Z,20.43
2018-06-28T06:32:45.576Z,20.52
2018-06-28T06:35:14.603Z,20.47
2018-06-28T06:37:42.720Z,20.38
2018-06-28T06:40:10.740Z,20.38
2018-06-28T06:42:38.745Z,20.47
2018-06-28T06:45:07.684Z,20.64
2018-06-28T06:47:35.659Z,20.93
2018-06-28T06:50:03.776Z,21.18
2018-06-28T06:52:31.824Z,21.31
2018-06-28T06:54:59.984Z,21.28
2018-06-28T06:57:27.989Z,21.23
2018-06-28T06:59:56.167Z,21.18
2018-06-28T07:02:24.330Z,21.27
2018-06-28T07:04:52.360Z,21.40
2018-06-28T07:07:20.357Z,21.40
2018-06-28T07:09:48.409Z,21.59
2018-06-28T07:12:16.613Z,21.80
2018-06-28T07:14:44.578Z,21.60
2018-06-28T07:17:12.669Z,21.67
2018-06-28T07:19:40.651Z,21.89
2018-06-28T07:22:08.746Z,21.87
2018-06-28T07:24:36.786Z,22.00
2018-06-28T07:27:05.060Z,22.25
2018-06-28T07:29:33.062Z,22.59
2018-06-28T07:32:02.190Z,22.84
2018-06-28T07:34:30.325Z,22.85
2018-06-28T07:36:58.312Z,22.77
2018-06-28T07:39:28.024Z,22.76
2018-06-28T07:41:56.048Z,22.65
2018-06-28T07:44:24.006Z,22.93
2018-06-28T07:46:52.533Z,23.07
2018-06-28T07:49:20.710Z,23.14
2018-06-28T07:51:48.651Z,23.31
2018-06-28T07:54:17.703Z,22.92
2018-06-28T07:56:45.905Z,22.74
2018-06-28T07:59:13.836Z,22.81
2018-06-28T08:01:41.846Z,22.81
2018-06-28T08:04:09.906Z,22.89
2018-06-28T08:06:38.147Z,23.03
2018-06-28T08:09:07.352Z,22.94
2018-06-28T08:11:35.353Z,23.19
2018-06-28T08:14:03.420Z,23.37
2018-06-28T08:16:34.768Z,23.49
2018-06-28T08:19:02.692Z,23.76
2018-06-28T08:21:30.774Z,24.01
2018-06-28T08:23:58.778Z,23.91
2018-06-28T08:26:26.823Z,23.92
2018-06-28T08:28:54.811Z,23.91
2018-06-28T08:31:22.898Z,23.84
2018-06-28T08:33:51.252Z,23.74
2018-06-28T08:36:20.279Z,23.77
2018-06-28T08:38:48.217Z,23.87
2018-06-28T08:41:16.453Z,23.90
2018-06-28T08:43:45.409Z,24.14
2018-06-28T08:46:13.443Z,24.36
2018-06-28T08:48:41.479Z,24.40
2018-06-28T08:51:09.446Z,24.48
2018-06-28T08:53:37.404Z,24.64
2018-06-28T08:56:05.540Z,25.04
2018-06-28T08:58:33.931Z,24.90
2018-06-28T09:01:01.896Z,24.61
2018-06-28T09:03:29.933Z,24.26
2018-06-28T09:05:58.528Z,24.25
2018-06-28T09:08:26.653Z,24.56
2018-06-28T09:10:54.715Z,24.63
2018-06-28T09:13:22.810Z,24.76
2018-06-28T09:15:51.142Z,24.49
2018-06-28T09:18:19.152Z,24.61
2018-06-28T09:20:47.179Z,24.58
2018-06-28T09:23:15.365Z,24.35
2018-06-28T09:25:43.843Z,24.08
2018-06-28T09:28:12.266Z,24.01
2018-06-28T09:30:40.270Z,23.93
2018-06-28T09:33:08.359Z,23.97
2018-06-28T09:35:36.307Z,23.97
2018-06-28T09:38:04.263Z,23.97
2018-06-28T09:40:32.359Z,23.75
2018-06-28T09:43:00.708Z,23.59
2018-06-28T09:45:28.977Z,23.23
2018-06-28T09:47:57.172Z,23.05
2018-06-28T09:50:25.211Z,22.99
2018-06-28T09:52:53.476Z,23.03
2018-06-28T09:55:21.800Z,22.87
2018-06-28T09:57:50.076Z,22.68
2018-06-28T10:00:22.530Z,22.54
2018-06-28T10:02:50.608Z,22.39
2018-06-28T10:05:18.600Z,22.09
2018-06-28T10:07:55.419Z,21.63
2018-06-28T10:10:23.454Z,21.14
2018-06-28T10:12:51.501Z,20.76
2018-06-28T10:15:19.501Z,20.61
2018-06-28T10:17:47.482Z,20.39
2018-06-28T10:20:15.530Z,20.18
2018-06-28T10:22:43.719Z,19.99
2018-06-28T10:25:11.673Z,19.89
2018-06-28T10:27:39.649Z,19.89
2018-06-28T10:30:07.695Z,19.88
2018-06-28T10:32:36.119Z,19.88
2018-06-28T10:35:04.168Z,19.87
2018-06-28T10:37:32.707Z,19.87
2018-06-28T10:40:00.843Z,19.79
2018-06-28T10:42:29.068Z,19.81
2018-06-28T10:44:57.098Z,19.81
2018-06-28T10:47:25.191Z,19.64
2018-06-28T10:49:53.186Z,19.58
2018-06-28T10:52:21.258Z,19.56
2018-06-28T10:54:49.185Z,19.56
2018-06-28T10:57:17.224Z,19.56
2018-06-28T10:59:45.179Z,19.48
2018-06-28T11:02:13.172Z,19.43
2018-06-28T11:04:41.116Z,19.34
2018-06-28T11:07:09.047Z,19.36
2018-06-28T11:09:38.265Z,19.39
2018-06-28T11:12:06.365Z,19.32
2018-06-28T11:14:34.690Z,19.24
2018-06-28T11:17:02.653Z,19.16
2018-06-28T11:19:30.801Z,19.08
2018-06-28T11:21:58.768Z,19.06
2018-06-28T11:24:27.487Z,18.97
2018-06-28T11:26:55.593Z,18.97
2018-06-28T11:29:24.176Z,18.82
2018-06-28T11:31:52.837Z,18.77
2018-06-28T11:34:21.908Z,18.75
2018-06-28T11:36:50.442Z,18.85
2018-06-28T11:39:18.447Z,18.91
2018-06-28T11:41:46.715Z,19.02
2018-06-28T11:44:14.820Z,19.17
2018-06-28T11:46:43.403Z,19.16
2018-06-28T11:49:11.408Z,19.14
2018-06-28T11:51:39.958Z,19.01
2018-06-28T11:54:08.180Z,19.02
2018-06-28T11:56:36.352Z,19.08
2018-06-28T11:59:04.319Z,19.22
2018-06-28T12:01:32.678Z,19.20
2018-06-28T12:04:00.831Z,19.22
2018-06-28T12:06:28.846Z,19.15
2018-06-28T12:08:57.091Z,19.13
2018-06-28T12:11:26.328Z,19.17
2018-06-28T12:13:54.551Z,19.19
2018-06-28T12:16:23.240Z,19.21
2018-06-28T12:18:51.884Z,19.19
2018-06-28T12:21:20.036Z,19.18
2018-06-28T12:23:48.228Z,19.20
2018-06-28T12:26:17.217Z,19.18
2018-06-28T12:28:45.195Z,19.21
2018-06-28T12:31:13.147Z,19.24
2018-06-28T12:33:41.384Z,19.34
2018-06-28T12:36:11.908Z,19.39
2018-06-28T12:38:40.063Z,19.47
2018-06-28T12:41:08.500Z,19.47
2018-06-28T12:43:37.147Z,19.39
2018-06-28T12:46:05.284Z,19.45
2018-06-28T12:48:33.561Z,19.35
2018-06-28T12:51:01.583Z,19.35
2018-06-28T12:53:29.579Z,19.41
2018-06-28T12:56:31.610Z,19.47
2018-06-28T12:59:01.048Z,19.45
2018-06-28T13:01:29.560Z,19.43
2018-06-28T13:03:59.203Z,19.39
2018-06-28T13:06:27.334Z,19.37
2018-06-28T13:08:55.917Z,19.41
2018-06-28T13:11:24.659Z,19.45
2018-06-28T13:13:53.305Z,19.48
2018-06-28T13:16:22.306Z,19.61
2018-06-28T13:18:50.318Z,19.73
2018-06-28T13:21:18.259Z,19.83
2018-06-28T13:23:46.345Z,20.00
2018-06-28T13:26:15.471Z,20.23
2018-06-28T13:28:44.723Z,20.58
2018-06-28T13:31:12.919Z,21.00
2018-06-28T13:33:40.971Z,21.12
2018-06-28T13:36:09.079Z,21.10
2018-06-28T13:38:37.952Z,21.17
2018-06-28T13:41:06.277Z,21.10
2018-06-28T13:43:34.130Z,21.06
2018-06-28T13:46:02.316Z,21.13
2018-06-28T13:48:30.568Z,21.14
2018-06-28T13:50:58.540Z,21.31
2018-06-28T13:53:26.522Z,21.72
2018-06-28T13:55:56.562Z,22.32
2018-06-28T13:58:24.670Z,23.17
2018-06-28T14:00:52.749Z,23.80
2018-06-28T14:03:20.969Z,24.35
2018-06-28T14:05:49.011Z,25.12
2018-06-28T14:08:16.959Z,25.01
2018-06-28T14:10:45.899Z,24.15
2018-06-28T14:13:13.928Z,23.35
2018-06-28T14:15:42.502Z,22.90
2018-06-28T14:18:11.055Z,22.54
2018-06-28T14:20:39.087Z,22.38
2018-06-28T14:23:07.604Z,22.31
2018-06-28T14:25:37.774Z,21.91
2018-06-28T14:28:05.772Z,21.40
2018-06-28T14:30:33.833Z,21.04
2018-06-28T14:33:02.238Z,20.75
2018-06-28T14:35:30.708Z,20.44
2018-06-28T14:37:58.705Z,20.15
2018-06-28T14:40:27.077Z,19.99
2018-06-28T14:42:55.050Z,19.89
2018-06-28T14:45:23.023Z,19.58
2018-06-28T14:47:51.356Z,19.33
2018-06-28T14:50:19.385Z,19.01
2018-06-28T14:52:47.380Z,18.67
2018-06-28T14:55:15.429Z,18.36
2018-06-28T14:57:43.480Z,18.05
2018-06-28T15:00:17.060Z,17.58
2018-06-28T15:02:45.119Z,17.08
2018-06-28T15:05:13.712Z,16.81
2018-06-28T15:07:41.922Z,16.68
2018-06-28T15:10:09.902Z,16.62
2018-06-28T15:12:37.880Z,16.64
2018-06-28T15:15:06.581Z,16.69
2018-06-28T15:17:34.588Z,16.73
2018-06-28T15:20:02.634Z,16.80
2018-06-28T15:22:30.631Z,16.83
2018-06-28T15:24:58.668Z,16.80
2018-06-28T15:27:26.647Z,16.87
2018-06-28T15:29:54.873Z,17.01
2018-06-28T15:32:22.909Z,17.08
2018-06-28T15:34:50.900Z,17.12
2018-06-28T15:37:18.878Z,17.10
2018-06-28T15:39:46.755Z,17.15
2018-06-28T15:42:17.350Z,17.12
2018-06-28T15:44:45.863Z,17.02
2018-06-28T15:47:13.839Z,16.93
2018-06-28T15:49:42.118Z,16.80
2018-06-28T15:52:10.136Z,16.73
2018-06-28T15:54:38.231Z,16.76
2018-06-28T15:57:06.151Z,16.87
2018-06-28T15:59:34.217Z,16.82
2018-06-28T16:02:02.483Z,16.82
2018-06-28T16:04:30.462Z,16.82
2018-06-28T16:06:59.316Z,16.82
2018-06-28T16:09:27.619Z,16.70
2018-06-28T16:11:55.742Z,16.76
2018-06-28T16:14:23.787Z,16.85
2018-06-28T16:16:51.758Z,17.07
2018-06-28T16:19:20.624Z,17.30
2018-06-28T16:21:48.636Z,17.40
2018-06-28T16:24:17.243Z,17.53
2018-06-28T16:26:45.310Z,17.61
2018-06-28T16:29:13.333Z,17.65
2018-06-28T16:31:41.319Z,17.63
2018-06-28T16:34:09.379Z,17.63
2018-06-28T16:36:37.420Z,17.55
2018-06-28T16:39:09.399Z,17.68
2018-06-28T16:41:37.457Z,17.64
2018-06-28T16:44:05.898Z,17.68
2018-06-28T16:46:34.001Z,17.76
2018-06-28T16:49:02.076Z,17.75
2018-06-28T16:51:30.008Z,17.67
2018-06-28T16:53:58.080Z,17.56
2018-06-28T16:56:26.052Z,17.48
2018-06-28T16:58:54.152Z,17.39
2018-06-28T17:01:22.193Z,17.35
2018-06-28T17:03:50.252Z,17.30
2018-06-28T17:06:18.203Z,17.36
2018-06-28T17:08:46.463Z,17.38
2018-06-28T17:11:14.473Z,17.41
2018-06-28T17:13:42.493Z,17.39
2018-06-28T17:16:10.895Z,17.38
2018-06-28T17:18:39.248Z,17.40
2018-06-28T17:21:07.428Z,17.43
2018-06-28T17:23:35.830Z,17.33
2018-06-28T17:26:04.162Z,17.33
2018-06-28T17:28:32.320Z,17.32
2018-06-28T17:31:01.446Z,17.31
2018-06-28T17:33:29.453Z,17.26
2018-06-28T17:35:57.605Z,17.22
2018-06-28T17:38:25.683Z,17.21
2018-06-28T17:40:53.907Z,17.18
2018-06-28T17:43:22.268Z,17.14
2018-06-28T17:45:50.553Z,17.00
2018-06-28T17:48:18.873Z,16.88
2018-06-28T17:50:47.209Z,16.86
2018-06-28T17:53:15.375Z,16.88
2018-06-28T17:55:44.088Z,16.87
2018-06-28T17:58:12.627Z,16.80
2018-06-28T18:00:40.877Z,16.74
2018-06-28T18:03:09.484Z,16.68
2018-06-28T18:05:37.603Z,16.58
2018-06-28T18:08:05.892Z,16.58
2018-06-28T18:10:33.935Z,16.44
2018-06-28T18:13:02.107Z,16.38
2018-06-28T18:15:30.077Z,16.27
2018-06-28T18:17:58.103Z,16.22
2018-06-28T18:20:26.152Z,16.11
2018-06-28T18:22:54.126Z,16.05
2018-06-28T18:25:23.360Z,15.95
2018-06-28T18:27:52.371Z,15.83
2018-06-28T18:30:20.615Z,15.73
2018-06-28T18:32:48.752Z,15.74
2018-06-28T18:35:16.928Z,15.73
2018-06-28T18:37:45.966Z,15.71
2018-06-28T18:40:14.016Z,15.70
2018-06-28T18:42:42.081Z,15.73
2018-06-28T18:45:10.808Z,15.78
2018-06-28T18:47:38.850Z,15.84
2018-06-28T18:50:06.836Z,15.86
2018-06-28T18:52:34.867Z,15.82
2018-06-28T18:55:04.845Z,15.76
2018-06-28T18:57:34.600Z,15.73
2018-06-28T19:00:03.271Z,15.68
2018-06-28T19:02:32.198Z,15.65
2018-06-28T19:05:00.271Z,15.58
2018-06-28T19:07:28.317Z,15.52
2018-06-28T19:10:01.903Z,15.53
2018-06-28T19:12:29.798Z,15.38
2018-06-28T19:15:03.386Z,15.39
2018-06-28T19:17:32.337Z,15.42
2018-06-28T19:20:00.945Z,15.34
2018-06-28T19:22:34.454Z,15.38
2018-06-28T19:25:02.821Z,15.38
2018-06-28T19:27:30.784Z,15.41
2018-06-28T19:30:05.092Z,15.35
2018-06-28T19:32:34.957Z,15.31
2018-06-28T19:35:03.340Z,15.25
2018-06-28T19:37:36.664Z,15.20
2018-06-28T19:40:11.985Z,15.19
2018-06-28T19:42:46.057Z,15.12
2018-06-28T19:45:14.247Z,15.09
2018-06-28T19:47:42.827Z,15.07
2018-06-28T19:50:16.458Z,15.08
2018-06-28T19:52:49.843Z,15.06
2018-06-28T19:55:18.419Z,15.00
2018-06-28T19:57:46.425Z,15.02
2018-06-28T20:00:19.806Z,14.94
2018-06-28T20:02:53.252Z,15.00
2018-06-28T20:05:21.721Z,14.96
2018-06-28T20:07:50.054Z,14.98
2018-06-28T20:10:19.208Z,14.93
2018-06-28T20:12:53.353Z,14.95
2018-06-28T20:16:05.151Z,14.93
2018-06-28T20:18:39.473Z,14.90
2018-06-28T20:21:07.633Z,14.75
2018-06-28T20:23:36.133Z,14.76
2018-06-28T20:26:09.468Z,14.75
2018-06-28T20:28:43.499Z,14.82
2018-06-28T20:31:16.875Z,14.95
2018-06-28T20:33:50.334Z,14.97
2018-06-28T20:36:18.295Z,15.02
2018-06-28T20:38:46.218Z,15.02
2018-06-28T20:41:14.162Z,15.07
2018-06-28T20:43:42.092Z,15.05
2018-06-28T20:46:10.332Z,15.04
2018-06-28T20:48:38.251Z,14.94
2018-06-28T20:51:06.907Z,14.88
2018-06-28T20:53:34.888Z,14.88
2018-06-28T20:56:02.868Z,14.87
2018-06-28T20:58:30.809Z,14.81
2018-06-28T21:00:58.811Z,14.76
2018-06-28T21:03:27.202Z,14.83
2018-06-28T21:05:55.070Z,14.83
2018-06-28T21:08:22.978Z,14.82
2018-06-28T21:10:51.404Z,14.78
2018-06-28T21:13:19.331Z,14.79
2018-06-28T21:15:47.684Z,14.70
2018-06-28T21:18:15.585Z,14.74
2018-06-28T21:20:43.503Z,14.68
2018-06-28T21:23:11.707Z,14.65
2018-06-28T21:25:39.702Z,14.70
2018-06-28T21:28:07.750Z,14.71
2018-06-28T21:30:35.726Z,14.62
2018-06-28T21:33:03.641Z,14.65
2018-06-28T21:35:31.513Z,14.66
2018-06-28T21:38:04.042Z,14.60
2018-06-28T21:40:31.977Z,14.64
2018-06-28T21:42:59.953Z,14.68
2018-06-28T21:45:27.971Z,14.68
2018-06-28T21:47:55.992Z,14.70
2018-06-28T21:50:24.030Z,14.70
2018-06-28T21:52:52.044Z,14.80
2018-06-28T21:55:19.980Z,14.93
2018-06-28T21:57:47.955Z,14.99
2018-06-28T22:00:33.164Z,14.89
2018-06-28T22:03:03.210Z,14.84
2018-06-28T22:05:32.265Z,14.72
2018-06-28T22:08:00.593Z,14.62
2018-06-28T22:10:28.492Z,14.54
2018-06-28T22:12:56.703Z,14.52
2018-06-28T22:15:26.080Z,14.43
2018-06-28T22:17:57.148Z,14.50
2018-06-28T22:20:26.253Z,14.49
2018-06-28T22:22:54.453Z,14.44
2018-06-28T22:25:22.805Z,14.47
2018-06-28T22:27:50.718Z,14.50
2018-06-28T22:30:19.285Z,14.41
2018-06-28T22:32:47.153Z,14.34
2018-06-28T22:35:15.286Z,14.32
2018-06-28T22:37:43.453Z,14.30
2018-06-28T22:40:11.447Z,14.30
2018-06-28T22:42:39.646Z,14.29
2018-06-28T22:45:08.398Z,14.32
2018-06-28T22:47:36.379Z,14.29
2018-06-28T22:50:04.644Z,14.27
2018-06-28T22:52:33.640Z,14.26
2018-06-28T22:55:01.894Z,14.16
2018-06-28T22:57:29.922Z,14.18
2018-06-28T22:59:58.184Z,14.14
2018-06-28T23:02:26.080Z,14.23
2018-06-28T23:04:54.372Z,14.07
2018-06-28T23:07:22.542Z,13.94
2018-06-28T23:09:50.421Z,14.00
2018-06-28T23:12:18.432Z,13.95
2018-06-28T23:14:46.435Z,14.00
2018-06-28T23:17:14.334Z,13.98
2018-06-28T23:19:42.592Z,13.95
2018-06-28T23:22:46.694Z,13.87
2018-06-28T23:25:15.302Z,13.86
2018-06-28T23:27:43.985Z,13.82
2018-06-28T23:30:12.203Z,13.80
2018-06-28T23:32:40.735Z,13.84
2018-06-28T23:35:08.942Z,13.88
2018-06-28T23:37:37.530Z,13.88
2018-06-28T23:40:05.613Z,13.90
2018-06-28T23:42:34.034Z,13.88
2018-06-28T23:45:02.108Z,13.92
2018-06-28T23:47:30.054Z,13.88
2018-06-28T23:49:58.082Z,13.82
2018-06-28T23:52:25.989Z,13.84
2018-06-28T23:54:54.346Z,13.89
2018-06-28T23:57:22.243Z,13.92
2018-06-28T23:59:50.154Z,13.98
